航空気象通報

ウインドサーファーのための航空気象通報による風予報です。

11/30-12/2の航空気象通報

2015年11月30日 20時44分20秒 | TAF
羽田空港
TAF RJTT 301105Z 3012/0118 35010KT 9999 FEW030
BECMG 0103/0106 05010KT
日本時間30日21時-1日12時:350度から10ノットの風
12-15時:風が変化
15時-2日03時:050度から10ノットの風


静岡空港
TAF RJNS 301106Z 3012/0118 27015KT 9999 FEW020
BECMG 0109/0112 02005KT
日本時間30日21時-1日18時:270度から15ノットの風
18-21時:風が変化
21時-2日03時:020度から5ノットの風


福岡空港
TAF RJFF 301105Z 3012/0118 16005KT 9999 FEW025
BECMG 0100/0103 35008KT
BECMG 0109/0112 13005KT
日本時間30日21時-1日09時:160度から5ノットの風
09-12時:風が変化
12-18時:350度から8ノットの風
18-21時:風が変化
21時-2日03時:130度から5ノットの風


那覇空港
TAF ROAH 301106Z 3012/0118 04010KT 9999 FEW020 SCT040
日本時間30日21時-2日03時:040度から10ノットの風


石垣空港
TAF ROIG 301111Z 3012/0118 06016KT 9999 SCT020 BKN040
TEMPO 3021/0106 4000 SHRA FEW010 BKN020 FEW025CB
TEMPO 0106/0112 3000 +SHRA SCT008 BKN015 FEW020CB
日本時間30日21時-2日03時:060度から16ノットの風

但し、1日06-21時の間:ときどき

マウイのカフルイ空港
PHOG 301122Z 3012/0112 05011KT P6SM SCT030 SCT045
FM302000 06016G26KT P6SM SCT030 SCT050
FM010600 06011KT P6SM SCT030 SCT050
ハワイ時間30日02-10時:050度から11ノットの風
10-20時:060から16ノット、突風26ノット
20時-1日02時:060度から11ノットの風


サイパン空港
TAF PGSN 301120Z 3012/0112 07010KT P6SM VCSH FEW021
マリアナ時間30日22時-1日22時:070度から10ノットの風
コメント
この記事をはてなブックマークに追加

11/29-12/1の航空気象通報

2015年11月29日 21時59分43秒 | TAF

羽田空港
TAF RJTT 291105Z 2912/3018 07014KT 9999 FEW015 BKN030
BECMG 2912/2914 36010KT
BECMG 3003/3006 16008KT
BECMG 3009/3012 35008KT
日本時間29日21時:070度から14ノットの風
21-23時:風が変化
23時-30日12時:360度から10ノットの風
12-15時:風が変化
15-18時:160度から8ノットの風
18-21時:風が変化
21時-1日03時:350度から8ノットの風

静岡空港
TAF RJNS 291105Z 2912/3018 34004KT 9999 FEW020
BECMG 3000/3003 27012KT
日本時間29日21時-30日09時:340度から4ノットの風
09-12時:風が変化
12時-1日03時:270度から12ノットの風

福岡空港
TAF RJFF 291108Z 2912/3018 14005KT 9999 FEW025 SCT045
BECMG 3000/3003 35008KT
BECMG 3015/3018 12003KT
日本時間29日21時-30日09時:140度から5ノットの風
09-12時:風が変化
12-24時:350度から8ノットの風
1日00-03時:風が変化
03時:120度から3ノットの風

那覇空港
TAF ROAH 291108Z 2912/3018 16016KT 9999 FEW010 BKN030
TEMPO 2912/2916 2000 +TSRA SCT008 BKN015 SCT020CB
BECMG 2915/2917 35015KT
TEMPO 2916/2919 34022G32KT
日本時間29日21-24時:160度から16ノットの風
30日00-02時:風が変化
02時-1日03時:350度から15ノットの風
但し、30日01-04時の間:ときどき340度から22ノット、突風32ノット

但し、29日21時-30日01時の間:ときどき

石垣空港
TAF ROIG 291110Z 2912/3018 36012KT 9999 FEW020 BKN045
日本時間29日21時-1日03時:360度から12ノットの風

マウイのカフルイ空港
PHOG 291141Z 2912/3012 07008KT P6SM VCSH SCT025 BKN035
FM292000 05017G25KT P6SM SCT030 SCT045
FM300500 06012G17KT P6SM FEW030 FEW045
FM300900 07008KT P6SM SCT035 SCT050
ハワイ時間29日02-10時:070度から8ノットの風

10-19時:050度から17ノット、突風25ノット
19-23時:060度から12ノット、突風17ノット
23時-30日02時:070度から8ノットの風

サイパン空港
TAF PGSN 291120Z 2912/3012 07013KT P6SM VCSH FEW023 SCT040
マリアナ時間29日22時-30日22時:070度から13ノットの風

コメント
この記事をはてなブックマークに追加

11/28-11/30の航空気象通報

2015年11月28日 23時14分39秒 | TAF

羽田空港
TAF RJTT 281105Z 2812/2918 36010KT 9999 FEW030
BECMG 2906/2909 08012KT
BECMG 2912/2915 36012KT
日本時間28日21時-29日15時:360度から10ノットの風
15-18時:風が変化
18-21時:080度から12ノットの風
21-24時:風が変化
30日00-03時:360度から12ノットの風

静岡空港
TAF RJNS 281105Z 2812/2918 27014KT 9999 FEW030
BECMG 2909/2912 32004KT
日本時間28日21時-29日18時:270度から14ノットの風
18-21時:風が変化
21時-30日03時:320度から4ノットの風

福岡空港
TAF RJFF 281107Z 2812/2918 14005KT 9999 FEW025 SCT040
日本時間28日21時-30日03時:140度から5ノットの風

那覇空港
TAF ROAH 281107Z 2812/2918 07006KT 9999 FEW030
BECMG 2822/2824 13012KT
TEMPO 2912/2918 3000 SHRA FEW008 BKN015 FEW020CB
BECMG 2915/2918 08018KT
日本時間28日21時-29日07時:070度から6ノットの風
07-09時:風が変化
09-24時:130度から12ノットの風
30日00-03時:風が変化
03時:080度から18ノットの風

但し、29日21時-30日03時の間:ときどき

石垣空港
TAF ROIG 281110Z 2812/2918 07014KT 9999 FEW030 BKN040
TEMPO 2903/2906 3000 SHRA FEW008 BKN015 FEW020CB
BECMG 2903/2906 22010KT
BECMG 2909/2912 30012KT
BECMG 2912/2915 35012KT
日本時間28日21時-29日12時:070度から14ノットの風
12-15時:風が変化
15-18時:220度から10ノットの風
18-21時:風が変化
21時:300度から12ノットの風
21-24時:風が変化
30日00-03時:350度から12ノットの風

但し、29日12-15時の間:ときどき

マウイのカフルイ空港
PHOG 281138Z 2812/2912 05012G18KT P6SM VCSH SCT025 BKN040
FM282000 05021G31KT P6SM FEW030 SCT050
FM290400 05015G21KT P6SM FEW030 SCT050
ハワイ時間28日02-10時:050度から12ノット、突風18ノット

10-18時:050度から21ノット、突風31ノット
18時-29日02時:050度から15ノット、突風21ノット

サイパン空港
TAF PGSN 281132Z 2812/2912 07015G22KT P6SM VCSH SCT022 SCT040
マリアナ時間28日22時-29日22時:070度から15ノット、突風22ノット

コメント
この記事をはてなブックマークに追加

11/27-11/29の航空気象通報

2015年11月27日 21時37分10秒 | TAF
羽田空港
TAF RJTT 271109Z 2712/2818 30006KT 9999 FEW030
BECMG 2800/2803 08005KT
BECMG 2809/2812 36010KT
日本時間27日21時-28日09時:300度から6ノットの風
09-12時:風が変化
12-18時:080度から5ノットの風
18-21時:風が変化
21時-29日03時:360度から10ノットの風


静岡空港
TAF RJNS 271105Z 2712/2818 27016KT 9999 FEW030
TEMPO 2800/2809 27020G30KT
日本時間27日21時-29日03時:270度から16ノットの風
但し、28日09-18時の間:ときどき270度から20ノット、突風30ノット


福岡空港
TAF RJFF 271109Z 2712/2818 20005KT 9999 FEW030 BKN045
BECMG 2712/2714 29010KT
BECMG 2809/2812 14003KT
日本時間27日21時:200度から5ノットの風
21-23時:風が変化
23時-28日18時:290度から10ノットの風
18-21時:風が変化
21時-29日03時:140度から3ノットの風


那覇空港
TAF ROAH 271106Z 2712/2818 04008KT 9999 FEW035 BKN045
日本時間27日21時-29日03時:040度から8ノットの風


石垣空港
ROIG 271108Z 2712/2818 04012KT 9999 FEW035 BKN045
日本時間27日21時-29日03時:040度から12ノットの風


マウイのカフルイ空港
PHOG 271120Z 2712/2812 05012KT P6SM SCT050
FM271900 06012G22KT P6SM SCT050
FM280900 05012KT P6SM SCT050
ハワイ時間27日02-09時:050度から12ノットの風
09-23時:060度から12ノット、突風22ノット
23時-28日02時:050度から12ノットの風


サイパン空港
TAF PGSN 271143Z 2712/2812 06010KT P6SM VCSH SCT020 SCT040
FM280000 06015G25KT P6SM VCSH SCT020
FM280900 07010KT P6SM VCSH FEW020
マリアナ時間27日22時-28日10時:0"0度から10ノットの風
10-19時:060度から15ノット、突風25ノット
19-22時:070度から10ノットの風
コメント
この記事をはてなブックマークに追加

11/26-11/28の航空気象通報

2015年11月27日 00時01分21秒 | TAF

羽田空港
TAF RJTT 261105Z 2612/2718 14004KT 9999 FEW010 SCT020
BECMG 2615/2617 23010KT
TEMPO 2621/2703 23020G30KT
日本時間26日21-24時:140度から4ノットの風
27日00-02時:風が変化
02時-28日03時:230度から10ノットの風
但し、27日06-12時の間:ときどき230度から20ノット、突風30ノット

静岡空港
TAF RJNS 261105Z 2612/2718 27018KT 9999 FEW030
BECMG 2620/2622 27022G32KT
日本時間26日21時-27日05時:270度から18ノットの風
05-07時:風が変化
07時-28日03時:270度から22ノット、突風32ノット

福岡空港
TAF RJFF 261107Z 2612/2718 29013KT 9999 -SHRASN FEW020 BKN035
TEMPO 2612/2618 28015G25KT
TEMPO 2618/2621 29015G28KT 4000 -TSRASNGS BR FEW010 SCT020 FEW025CB BKN030
TEMPO 2621/2703 31015G25KT
日本時間26日21時-28日03時:290度から13ノットの風
但し、26日21時-27日03時の間:280度から15ノット、突風25ノット
但し、27日03-06時:290度から15ノット、突風25ノット
但し、27日06-12時の間:310度から15ノット、突風25ノット

那覇空港
TAF ROAH 261107Z 2612/2718 34022KT 9999 FEW030 BKN045
BECMG 2706/2709 04010KT
日本時間26日21時-27日15時:340度から22ノットの風
15-18時:風が変化
18時-28日03時:040度から10ノットの風

石垣空港
TAF ROIG 261111Z 2612/2718 01018KT 9999 FEW030 BKN045
TEMPO 2612/2618 01022G32KT
日本時間26日21時-28日03時:010度から18ノットの風
但し、26日21時-27日03時の間:010度から22ノット、突風32ノット

マウイのカフルイ空港
PHOG 261120Z 2612/2712 05012KT P6SM VCSH SCT025 BKN050
FM262000 05012G22KT P6SM VCSH SCT025 BKN050
FM270400 05012KT P6SM VCSH SCT025 BKN050
ハワイ時間26日02-10時:050度から12ノットの風
10-18時:050度から12ノット、突風22ノット
18時-27日02時:050度から12ノットの風

サイパン空港
TAF PGSN 261149Z 2612/2712 10010KT P6SM VCSH SCT016 SCT050
マリアナ時間26日22時-27日22時:100度から10ノットの風

コメント
この記事をはてなブックマークに追加